createdAt,value
2022-09-05T00:02:35.113Z,100.00
2022-09-05T00:05:21.078Z,100.00
2022-09-05T00:08:10.197Z,100.00
2022-09-05T00:11:18.047Z,100.00
2022-09-05T00:13:20.276Z,100.00
2022-09-05T00:16:09.772Z,100.00
2022-09-05T00:24:18.692Z,100.00
2022-09-05T00:24:27.479Z,100.00
2022-09-05T00:24:32.144Z,100.00
2022-09-05T00:26:54.702Z,100.00
2022-09-05T00:30:52.332Z,100.00
2022-09-05T00:32:40.215Z,100.00
2022-09-05T00:35:27.845Z,100.00
2022-09-05T00:37:59.635Z,100.00
2022-09-05T00:40:38.888Z,100.00
2022-09-05T00:43:14.364Z,100.00
2022-09-05T00:45:50.114Z,100.00
2022-09-05T00:48:54.948Z,100.00
2022-09-05T00:51:34.958Z,100.00
2022-09-05T00:54:13.724Z,100.00
2022-09-05T00:57:11.382Z,100.00
2022-09-05T01:00:10.740Z,100.00
2022-09-05T01:03:03.009Z,100.00
2022-09-05T01:05:59.164Z,100.00
2022-09-05T01:08:32.149Z,100.00
2022-09-05T01:11:10.835Z,100.00
2022-09-05T01:13:50.107Z,100.00
2022-09-05T01:16:37.741Z,100.00
2022-09-05T01:19:28.494Z,100.00
2022-09-05T01:22:04.145Z,100.00
2022-09-05T01:24:40.189Z,100.00
2022-09-05T01:28:22.305Z,100.00
2022-09-05T01:30:16.128Z,100.00
2022-09-05T01:33:05.966Z,100.00
2022-09-05T01:35:53.511Z,100.00
2022-09-05T01:38:40.592Z,100.00
2022-09-05T01:41:21.707Z,100.00
2022-09-05T01:44:23.529Z,100.00
2022-09-05T01:47:08.699Z,100.00
2022-09-05T01:50:02.234Z,100.00
2022-09-05T01:52:57.143Z,100.00
2022-09-05T01:56:04.825Z,100.00
2022-09-05T01:58:40.660Z,100.00
2022-09-05T02:01:33.339Z,100.00
2022-09-05T02:04:30.317Z,100.00
2022-09-05T02:07:19.245Z,100.00
2022-09-05T02:09:43.637Z,100.00
2022-09-05T02:12:19.325Z,100.00
2022-09-05T02:14:58.759Z,100.00
2022-09-05T02:17:51.103Z,100.00
2022-09-05T02:20:12.287Z,100.00
2022-09-05T02:22:48.166Z,100.00
2022-09-05T02:26:01.041Z,100.00
2022-09-05T02:28:06.122Z,100.00
2022-09-05T02:30:38.514Z,100.00
2022-09-05T02:33:29.531Z,100.00
2022-09-05T02:36:17.283Z,100.00
2022-09-05T02:43:30.340Z,100.00
2022-09-05T02:45:05.998Z,100.00
2022-09-05T02:45:09.926Z,100.00
2022-09-05T02:47:23.840Z,100.00
2022-09-05T02:53:49.632Z,100.00
2022-09-05T02:57:33.270Z,100.00
2022-09-05T02:57:41.588Z,100.00
2022-09-05T02:59:06.112Z,100.00
2022-09-05T03:01:27.278Z,100.00
2022-09-05T03:04:12.182Z,100.00
2022-09-05T03:07:03.089Z,100.00
2022-09-05T03:09:44.536Z,100.00
2022-09-05T03:12:46.445Z,100.00
2022-09-05T03:15:31.092Z,100.00
2022-09-05T03:18:33.370Z,100.00
2022-09-05T03:21:24.252Z,100.00
2022-09-05T03:24:00.037Z,100.00
2022-09-05T03:26:52.859Z,100.00
2022-09-05T03:29:42.031Z,100.00
2022-09-05T03:32:30.996Z,100.00
2022-09-05T03:35:28.250Z,100.00
2022-09-05T03:38:18.672Z,100.00
2022-09-05T03:40:54.445Z,100.00
2022-09-05T03:43:39.390Z,100.00
2022-09-05T03:46:21.739Z,100.00
2022-09-05T03:48:58.064Z,100.00
2022-09-05T03:57:10.927Z,100.00
2022-09-05T03:57:11.563Z,100.00
2022-09-05T03:57:42.315Z,100.00
2022-09-05T04:00:21.619Z,100.00
2022-09-05T04:08:14.319Z,100.00
2022-09-05T04:08:28.482Z,100.00
2022-09-05T04:08:38.815Z,100.00
2022-09-05T04:11:11.503Z,100.00
2022-09-05T04:13:56.329Z,100.00
2022-09-05T04:16:44.624Z,100.00
2022-09-05T04:19:34.316Z,100.00
2022-09-05T04:22:21.685Z,100.00
2022-09-05T04:24:57.597Z,100.00
2022-09-05T04:27:56.875Z,100.00
2022-09-05T04:30:50.880Z,100.00
2022-09-05T04:33:36.161Z,100.00
2022-09-05T04:36:00.973Z,100.00
2022-09-05T04:38:41.673Z,100.00
2022-09-05T04:41:17.182Z,100.00
2022-09-05T04:44:01.319Z,100.00
2022-09-05T04:46:48.242Z,100.00
2022-09-05T04:49:17.879Z,100.00
2022-09-05T04:52:30.358Z,100.00
2022-09-05T04:55:11.791Z,100.00
2022-09-05T04:58:01.208Z,100.00
2022-09-05T05:06:01.511Z,100.00
2022-09-05T05:06:01.928Z,100.00
2022-09-05T05:06:16.894Z,100.00
2022-09-05T05:08:46.262Z,100.00
2022-09-05T05:17:59.175Z,100.00
2022-09-05T05:18:07.630Z,100.00
2022-09-05T05:18:09.766Z,100.00
2022-09-05T05:20:42.915Z,100.00
2022-09-05T05:22:52.784Z,100.00
2022-09-05T05:25:23.532Z,100.00
2022-09-05T05:28:24.096Z,100.00
2022-09-05T05:30:46.508Z,100.00
2022-09-05T05:33:26.677Z,100.00
2022-09-05T05:36:00.500Z,100.00
2022-09-05T05:38:48.551Z,100.00
2022-09-05T05:41:33.360Z,100.00
2022-09-05T05:44:22.713Z,100.00
2022-09-05T05:46:58.267Z,100.00
2022-09-05T05:49:32.084Z,100.00
2022-09-05T05:52:19.685Z,100.00
2022-09-05T05:55:09.680Z,100.00
2022-09-05T05:57:32.451Z,100.00
2022-09-05T06:00:08.770Z,100.00
2022-09-05T06:03:24.953Z,100.00
2022-09-05T06:05:53.274Z,100.00
2022-09-05T06:14:52.832Z,100.00
2022-09-05T06:14:58.260Z,100.00
2022-09-05T06:15:04.946Z,100.00
2022-09-05T06:17:19.997Z,100.00
2022-09-05T06:21:38.955Z,100.00
2022-09-05T06:22:32.622Z,100.00
2022-09-05T06:25:23.742Z,100.00
2022-09-05T06:28:18.799Z,100.00
2022-09-05T06:31:29.207Z,100.00
2022-09-05T06:33:43.611Z,100.00
2022-09-05T06:36:18.577Z,100.00
2022-09-05T06:39:15.309Z,100.00
2022-09-05T06:41:57.645Z,100.00
2022-09-05T06:44:48.648Z,100.00
2022-09-05T06:47:32.527Z,100.00
2022-09-05T06:50:23.827Z,100.00
2022-09-05T06:53:21.083Z,100.00
2022-09-05T06:56:10.214Z,100.00
2022-09-05T06:58:56.223Z,100.00
2022-09-05T07:01:39.970Z,100.00
2022-09-05T07:04:21.059Z,100.00
2022-09-05T07:07:01.769Z,100.00
2022-09-05T07:09:32.444Z,100.00
2022-09-05T07:12:21.552Z,100.00
2022-09-05T07:14:57.273Z,100.00
2022-09-05T07:18:08.565Z,100.00
2022-09-05T07:20:24.844Z,100.00
2022-09-05T07:23:38.309Z,100.00
2022-09-05T07:25:37.617Z,100.00
2022-09-05T07:28:29.329Z,100.00
2022-09-05T07:30:51.129Z,100.00
2022-09-05T07:33:26.563Z,100.00
2022-09-05T07:35:59.596Z,100.00
2022-09-05T07:38:48.989Z,100.00
2022-09-05T07:41:15.557Z,100.00
2022-09-05T07:43:48.237Z,100.00
2022-09-05T07:46:21.089Z,100.00
2022-09-05T07:49:03.009Z,100.00
2022-09-05T07:56:50.218Z,100.00
2022-09-05T07:57:08.067Z,100.00
2022-09-05T07:59:37.879Z,100.00
2022-09-05T08:02:10.191Z,100.00
2022-09-05T08:04:42.360Z,100.00
2022-09-05T08:07:50.080Z,100.00
2022-09-05T08:10:09.245Z,100.00
2022-09-05T08:12:51.908Z,100.00
2022-09-05T08:15:16.435Z,100.00
2022-09-05T08:18:10.515Z,100.00
2022-09-05T08:21:03.632Z,100.00
2022-09-05T08:24:05.609Z,100.00
2022-09-05T08:26:52.887Z,100.00
2022-09-05T08:29:34.192Z,100.00
2022-09-05T08:32:18.691Z,100.00
2022-09-05T08:35:01.397Z,100.00
2022-09-05T08:37:33.856Z,100.00
2022-09-05T08:40:11.082Z,100.00
2022-09-05T08:43:38.044Z,100.00
2022-09-05T08:46:40.020Z,100.00
2022-09-05T08:48:15.356Z,100.00
2022-09-05T08:50:54.455Z,100.00
2022-09-05T08:53:58.374Z,100.00
2022-09-05T08:56:48.738Z,100.00
2022-09-05T08:59:32.720Z,100.00
2022-09-05T09:02:30.286Z,100.00
2022-09-05T09:05:01.875Z,100.00
2022-09-05T09:07:51.259Z,100.00
2022-09-05T09:10:25.982Z,100.00
2022-09-05T09:13:06.900Z,100.00
2022-09-05T09:16:07.129Z,100.00
2022-09-05T09:18:51.687Z,100.00
2022-09-05T09:21:36.655Z,100.00
2022-09-05T09:24:27.868Z,100.00
2022-09-05T09:27:12.979Z,100.00
2022-09-05T09:29:45.154Z,100.00
2022-09-05T09:32:24.411Z,100.00
2022-09-05T09:35:00.197Z,100.00
2022-09-05T09:37:59.359Z,100.00
2022-09-05T09:41:02.208Z,100.00
2022-09-05T09:43:35.892Z,100.00
2022-09-05T09:46:18.138Z,98.20
2022-09-05T09:49:22.502Z,98.20
2022-09-05T09:51:56.429Z,100.00
2022-09-05T09:54:53.479Z,98.91
2022-09-05T09:57:44.486Z,99.82
2022-09-05T10:00:21.737Z,100.00
2022-09-05T10:10:36.375Z,99.19
2022-09-05T10:10:48.838Z,100.00
2022-09-05T10:10:52.850Z,97.61
2022-09-05T10:14:49.167Z,94.01
2022-09-05T10:17:26.503Z,94.01
2022-09-05T10:20:29.186Z,100.00
2022-09-05T10:23:24.127Z,93.45
2022-09-05T10:26:11.687Z,99.64
2022-09-05T10:29:37.021Z,99.59
2022-09-05T10:33:58.364Z,99.59
2022-09-05T10:35:18.065Z,97.66
2022-09-05T10:37:07.431Z,100.00
2022-09-05T10:39:40.509Z,92.69
2022-09-05T10:42:16.715Z,92.62
2022-09-05T10:44:57.430Z,95.41
2022-09-05T10:47:48.431Z,92.47
2022-09-05T10:50:29.933Z,92.49
2022-09-05T10:53:06.532Z,92.70
2022-09-05T10:56:02.143Z,90.64
2022-09-05T10:59:24.691Z,92.34
2022-09-05T11:02:26.702Z,94.02
2022-09-05T11:04:00.658Z,94.02
2022-09-05T11:06:46.104Z,92.95
2022-09-05T11:09:27.999Z,90.80
2022-09-05T11:12:06.043Z,92.50
2022-09-05T11:14:47.496Z,93.32
2022-09-05T11:17:20.172Z,90.91
2022-09-05T11:19:53.029Z,90.16
2022-09-05T11:22:25.533Z,90.64
2022-09-05T11:24:58.726Z,89.99
2022-09-05T11:27:37.954Z,87.34
2022-09-05T11:30:28.550Z,85.56
2022-09-05T11:38:40.889Z,90.19
2022-09-05T11:39:55.489Z,87.32
2022-09-05T11:40:10.956Z,89.45
2022-09-05T11:41:38.828Z,85.81
2022-09-05T11:44:27.321Z,83.59
2022-09-05T11:47:27.229Z,88.89
2022-09-05T11:49:59.654Z,84.70
2022-09-05T11:52:59.522Z,85.98
2022-09-05T11:55:38.874Z,86.02
2022-09-05T11:58:45.120Z,85.21
2022-09-05T12:01:41.286Z,85.00
2022-09-05T12:04:21.672Z,86.23
2022-09-05T12:07:27.026Z,87.47
2022-09-05T12:09:50.751Z,87.15
2022-09-05T12:12:41.698Z,85.94
2022-09-05T12:15:26.686Z,83.73
2022-09-05T12:18:19.568Z,85.34
2022-09-05T12:20:52.298Z,85.98
2022-09-05T12:24:11.618Z,85.73
2022-09-05T12:27:39.513Z,82.66
2022-09-05T12:29:46.976Z,86.52
2022-09-05T12:32:49.461Z,84.45
2022-09-05T12:36:09.946Z,81.27
2022-09-05T12:40:28.688Z,83.21
2022-09-05T12:41:32.073Z,82.46
2022-09-05T12:44:36.483Z,82.35
2022-09-05T12:48:43.524Z,84.39
2022-09-05T12:51:45.840Z,84.39
2022-09-05T12:53:57.517Z,79.12
2022-09-05T13:00:54.076Z,79.96
2022-09-05T13:03:00.950Z,84.46
2022-09-05T13:03:15.335Z,79.57
2022-09-05T13:04:47.433Z,83.78
2022-09-05T13:07:21.053Z,84.66
2022-09-05T13:10:26.231Z,81.86
2022-09-05T13:14:58.896Z,83.12
2022-09-05T13:15:27.276Z,83.67
2022-09-05T13:18:15.607Z,82.38
2022-09-05T13:20:51.599Z,82.12
2022-09-05T13:23:39.092Z,82.33
2022-09-05T13:26:21.941Z,84.59
2022-09-05T13:29:09.910Z,86.13
2022-09-05T13:38:04.721Z,84.58
2022-09-05T13:38:06.155Z,82.11
2022-09-05T13:38:13.079Z,87.11
2022-09-05T13:39:56.237Z,84.40
2022-09-05T13:42:30.421Z,81.43
2022-09-05T13:45:02.658Z,84.38
2022-09-05T13:47:44.856Z,86.89
2022-09-05T13:50:39.911Z,85.74
2022-09-05T13:53:31.117Z,83.10
2022-09-05T13:56:16.380Z,80.34
2022-09-05T13:58:57.330Z,87.87
2022-09-05T14:01:52.567Z,83.76
2022-09-05T14:09:54.472Z,84.27
2022-09-05T14:12:39.215Z,87.17
2022-09-05T14:15:14.123Z,81.76
2022-09-05T14:18:01.555Z,82.32
2022-09-05T14:20:52.501Z,83.51
2022-09-05T14:23:26.435Z,84.44
2022-09-05T14:26:02.300Z,81.24
2022-09-05T14:28:41.711Z,80.20
2022-09-05T14:33:19.192Z,80.37
2022-09-05T14:37:41.899Z,82.32
2022-09-05T14:37:54.946Z,79.44
2022-09-05T14:39:27.474Z,82.32
2022-09-05T14:42:10.094Z,82.93
2022-09-05T14:45:07.690Z,81.49
2022-09-05T14:47:59.841Z,83.91
2022-09-05T14:50:42.062Z,81.41
2022-09-05T14:56:56.406Z,81.29
2022-09-05T15:02:42.924Z,81.05
2022-09-05T15:02:56.991Z,82.09
2022-09-05T15:06:28.183Z,81.70
2022-09-05T15:11:42.663Z,82.58
2022-09-05T15:12:21.895Z,84.83
2022-09-05T15:14:11.237Z,86.63
2022-09-05T15:16:43.858Z,88.74
2022-09-05T15:19:16.603Z,88.44
2022-09-05T15:21:46.498Z,88.67
2022-09-05T15:24:31.710Z,86.91
2022-09-05T15:27:04.449Z,86.91
2022-09-05T15:29:36.224Z,88.00
2022-09-05T15:32:22.583Z,88.44
2022-09-05T15:34:55.967Z,88.19
2022-09-05T15:37:41.165Z,91.36
2022-09-05T15:40:22.806Z,88.33
2022-09-05T15:42:57.305Z,88.57
2022-09-05T15:45:36.114Z,88.22
2022-09-05T15:48:21.694Z,88.40
2022-09-05T15:50:56.318Z,86.60
2022-09-05T15:53:36.714Z,86.19
2022-09-05T15:56:16.530Z,89.30
2022-09-05T15:58:57.982Z,87.50
2022-09-05T16:01:59.191Z,88.60
2022-09-05T16:07:59.856Z,90.72
2022-09-05T16:10:31.484Z,92.40
2022-09-05T16:10:48.951Z,92.40
2022-09-05T16:12:17.190Z,91.48
2022-09-05T16:14:24.802Z,91.48
2022-09-05T16:23:11.953Z,92.65
2022-09-05T16:23:25.483Z,94.05
2022-09-05T16:23:26.990Z,93.64
2022-09-05T16:25:28.733Z,92.88
2022-09-05T16:28:04.470Z,93.35
2022-09-05T16:30:37.185Z,93.03
2022-09-05T16:33:12.833Z,95.01
2022-09-05T16:36:00.469Z,97.19
2022-09-05T16:38:51.443Z,96.52
2022-09-05T16:41:24.784Z,97.33
2022-09-05T16:43:57.675Z,96.97
2022-09-05T16:46:36.443Z,99.93
2022-09-05T16:49:42.345Z,99.69
2022-09-05T16:51:59.151Z,100.00
2022-09-05T16:54:40.908Z,100.00
2022-09-05T16:57:22.804Z,100.00
2022-09-05T16:59:53.328Z,100.00
2022-09-05T17:02:26.553Z,100.00
2022-09-05T17:05:14.661Z,100.00
2022-09-05T17:07:53.530Z,100.00
2022-09-05T17:10:29.013Z,100.00
2022-09-05T17:12:59.398Z,100.00
2022-09-05T17:15:31.973Z,100.00
2022-09-05T17:18:22.046Z,100.00
2022-09-05T17:20:49.901Z,100.00
2022-09-05T17:29:17.075Z,100.00
2022-09-05T17:29:23.470Z,100.00
2022-09-05T17:29:26.999Z,100.00
2022-09-05T17:34:19.605Z,100.00
2022-09-05T17:36:58.611Z,100.00
2022-09-05T17:39:46.753Z,100.00
2022-09-05T17:42:41.533Z,100.00
2022-09-05T17:45:20.329Z,100.00
2022-09-05T17:47:53.594Z,100.00
2022-09-05T17:50:34.822Z,100.00
2022-09-05T17:53:25.123Z,100.00
2022-09-05T17:55:47.571Z,100.00
2022-09-05T17:58:50.250Z,100.00
2022-09-05T18:01:26.890Z,100.00
2022-09-05T18:04:16.761Z,100.00
2022-09-05T18:06:52.825Z,100.00
2022-09-05T18:09:48.058Z,100.00
2022-09-05T18:13:13.870Z,100.00
2022-09-05T18:15:10.034Z,100.00
2022-09-05T18:17:44.570Z,100.00
2022-09-05T18:20:33.381Z,100.00
2022-09-05T18:23:18.251Z,100.00
2022-09-05T18:25:56.914Z,100.00
2022-09-05T18:28:34.813Z,100.00
2022-09-05T18:31:42.744Z,100.00
2022-09-05T18:34:24.475Z,100.00
2022-09-05T18:36:56.823Z,100.00
2022-09-05T18:39:37.212Z,100.00
2022-09-05T18:42:26.588Z,100.00
2022-09-05T18:44:59.681Z,100.00
2022-09-05T18:47:34.736Z,100.00
2022-09-05T18:50:25.674Z,100.00
2022-09-05T18:52:43.184Z,100.00
2022-09-05T18:56:08.973Z,100.00
2022-09-05T18:57:58.922Z,100.00
2022-09-05T19:00:44.624Z,100.00
2022-09-05T19:03:24.778Z,100.00
2022-09-05T19:06:34.309Z,100.00
2022-09-05T19:08:32.348Z,100.00
2022-09-05T19:11:09.231Z,100.00
2022-09-05T19:13:39.843Z,100.00
2022-09-05T19:16:42.290Z,100.00
2022-09-05T19:19:18.647Z,100.00
2022-09-05T19:22:54.517Z,100.00
2022-09-05T19:24:45.088Z,100.00
2022-09-05T19:28:09.637Z,100.00
2022-09-05T19:36:45.970Z,100.00
2022-09-05T19:36:47.059Z,100.00
2022-09-05T19:37:02.706Z,100.00
2022-09-05T19:37:28.895Z,100.00
2022-09-05T19:46:21.099Z,100.00
2022-09-05T19:47:34.563Z,100.00
2022-09-05T19:47:36.822Z,100.00
2022-09-05T19:48:03.821Z,100.00
2022-09-05T19:50:11.514Z,100.00
2022-09-05T19:52:41.358Z,100.00
2022-09-05T19:55:22.766Z,100.00
2022-09-05T19:58:05.103Z,100.00
2022-09-05T20:00:27.884Z,100.00
2022-09-05T20:03:00.965Z,100.00
2022-09-05T20:05:31.249Z,100.00
2022-09-05T20:08:02.013Z,100.00
2022-09-05T20:10:34.625Z,100.00
2022-09-05T20:13:24.096Z,100.00
2022-09-05T20:15:54.214Z,100.00
2022-09-05T20:18:30.129Z,100.00
2022-09-05T20:21:08.869Z,100.00
2022-09-05T20:23:41.675Z,100.00
2022-09-05T20:26:12.967Z,100.00
2022-09-05T20:28:43.345Z,100.00
2022-09-05T20:31:22.568Z,100.00
2022-09-05T20:33:58.489Z,100.00
2022-09-05T20:43:17.392Z,100.00
2022-09-05T20:43:35.103Z,100.00
2022-09-05T20:43:35.830Z,100.00
2022-09-05T20:44:25.279Z,100.00
2022-09-05T20:49:02.450Z,100.00
2022-09-05T20:54:14.957Z,100.00
2022-09-05T20:54:21.144Z,100.00
2022-09-05T20:55:38.559Z,100.00
2022-09-05T20:57:48.287Z,100.00
2022-09-05T21:00:22.935Z,100.00
2022-09-05T21:02:58.884Z,100.00
2022-09-05T21:05:38.906Z,100.00
2022-09-05T21:08:26.731Z,100.00
2022-09-05T21:10:58.724Z,100.00
2022-09-05T21:13:31.603Z,100.00
2022-09-05T21:16:03.976Z,100.00
2022-09-05T21:18:34.790Z,100.00
2022-09-05T21:21:29.467Z,100.00
2022-09-05T21:23:40.350Z,100.00
2022-09-05T21:26:27.674Z,100.00
2022-09-05T21:29:18.292Z,100.00
2022-09-05T21:31:54.472Z,100.00
2022-09-05T21:34:23.739Z,100.00
2022-09-05T21:37:07.206Z,100.00
2022-09-05T21:39:33.503Z,100.00
2022-09-05T21:42:18.582Z,100.00
2022-09-05T21:47:46.101Z,100.00
2022-09-05T21:47:49.091Z,100.00
2022-09-05T21:49:40.905Z,100.00
2022-09-05T21:52:11.681Z,100.00
2022-09-05T21:59:16.840Z,100.00
2022-09-05T21:59:26.708Z,100.00
2022-09-05T21:59:51.111Z,100.00
2022-09-05T22:02:21.435Z,100.00
2022-09-05T22:04:53.055Z,100.00
2022-09-05T22:07:32.935Z,100.00
2022-09-05T22:09:55.656Z,100.00
2022-09-05T22:12:30.229Z,100.00
2022-09-05T22:15:17.726Z,100.00
2022-09-05T22:17:32.563Z,100.00
2022-09-05T22:20:04.970Z,100.00
2022-09-05T22:22:38.109Z,100.00
2022-09-05T22:25:14.732Z,100.00
2022-09-05T22:27:45.956Z,100.00
2022-09-05T22:30:14.790Z,100.00
2022-09-05T22:32:44.218Z,100.00
2022-09-05T22:35:16.011Z,100.00
2022-09-05T22:37:47.965Z,100.00
2022-09-05T22:40:18.650Z,100.00
2022-09-05T22:42:51.224Z,100.00
2022-09-05T22:45:20.749Z,100.00
2022-09-05T22:47:50.641Z,100.00
2022-09-05T22:50:20.837Z,100.00
2022-09-05T22:52:50.707Z,100.00
2022-09-05T22:59:38.922Z,100.00
2022-09-05T23:02:08.793Z,100.00
2022-09-05T23:04:38.686Z,100.00
2022-09-05T23:07:08.521Z,100.00
2022-09-05T23:09:38.849Z,100.00
2022-09-05T23:12:08.760Z,100.00
2022-09-05T23:14:38.580Z,100.00
2022-09-05T23:17:08.354Z,100.00
2022-09-05T23:19:38.195Z,100.00
2022-09-05T23:22:08.029Z,100.00
2022-09-05T23:24:39.378Z,100.00
2022-09-05T23:27:09.079Z,100.00
2022-09-05T23:29:39.274Z,100.00
2022-09-05T23:32:10.077Z,100.00
2022-09-05T23:34:40.043Z,100.00
2022-09-05T23:37:11.207Z,100.00
2022-09-05T23:39:41.073Z,100.00
2022-09-05T23:42:11.492Z,100.00
2022-09-05T23:44:43.355Z,100.00
2022-09-05T23:47:13.315Z,100.00
2022-09-05T23:49:43.235Z,100.00
2022-09-05T23:52:12.957Z,100.00
2022-09-05T23:54:42.750Z,100.00
2022-09-05T23:57:12.666Z,100.00
2022-09-05T23:59:42.455Z,100.00
